createdAt,value
2023-05-20T00:01:06.540Z,45.95
2023-05-20T00:03:52.596Z,44.05
2023-05-20T00:06:34.583Z,43.17
2023-05-20T00:09:20.699Z,48.00
2023-05-20T00:11:52.457Z,43.58
2023-05-20T00:14:22.405Z,41.33
2023-05-20T00:16:58.679Z,43.35
2023-05-20T00:19:34.244Z,42.65
2023-05-20T00:22:07.095Z,46.92
2023-05-20T00:27:09.459Z,45.25
2023-05-20T00:29:39.491Z,43.33
2023-05-20T00:32:14.795Z,46.13
2023-05-20T00:34:53.014Z,44.55
2023-05-20T00:37:26.217Z,44.40
2023-05-20T00:39:59.002Z,46.78
2023-05-20T00:45:11.620Z,47.55
2023-05-20T00:47:48.724Z,44.17
2023-05-20T00:50:24.858Z,42.33
2023-05-20T00:52:59.009Z,46.13
2023-05-20T00:55:36.042Z,42.55
2023-05-20T00:58:11.926Z,46.70
2023-05-20T01:00:48.037Z,41.50
2023-05-20T01:03:20.356Z,44.55
2023-05-20T01:06:07.263Z,44.53
2023-05-20T01:08:45.426Z,44.67
2023-05-20T01:11:24.527Z,44.55
2023-05-20T01:14:02.645Z,46.13
2023-05-20T01:16:45.909Z,44.38
2023-05-20T01:22:10.659Z,51.28
2023-05-20T01:24:56.237Z,46.42
2023-05-20T01:27:30.434Z,47.10
2023-05-20T01:30:01.496Z,51.72
2023-05-20T01:32:41.734Z,48.50
2023-05-20T01:35:23.379Z,46.05
2023-05-20T01:38:08.624Z,48.78
2023-05-20T01:40:42.802Z,47.30
2023-05-20T01:43:18.067Z,46.78
2023-05-20T01:45:48.752Z,47.92
2023-05-20T01:48:30.220Z,50.33
2023-05-20T01:51:01.359Z,51.28
2023-05-20T01:56:09.905Z,50.35
2023-05-20T02:01:25.792Z,49.17
2023-05-20T02:04:04.636Z,52.92
2023-05-20T02:06:42.195Z,50.40
2023-05-20T02:09:18.413Z,50.58
2023-05-20T02:12:03.096Z,51.10
2023-05-20T02:14:34.647Z,51.97
2023-05-20T02:17:15.220Z,57.47
2023-05-20T02:19:45.780Z,50.75
2023-05-20T02:22:40.426Z,50.22
2023-05-20T02:25:23.304Z,53.03
2023-05-20T02:27:59.342Z,53.97
2023-05-20T02:30:32.591Z,50.88
2023-05-20T02:33:04.027Z,56.63
2023-05-20T02:35:36.298Z,51.50
2023-05-20T02:38:20.047Z,54.72
2023-05-20T02:40:56.271Z,53.00
2023-05-20T02:43:29.333Z,54.38
2023-05-20T02:46:06.043Z,57.25
2023-05-20T02:48:37.951Z,54.45
2023-05-20T02:51:09.812Z,57.47
2023-05-20T02:53:44.810Z,53.67
2023-05-20T02:56:21.508Z,52.65
2023-05-20T02:59:02.726Z,54.33
2023-05-20T03:01:34.025Z,55.30
2023-05-20T03:04:11.376Z,57.38
2023-05-20T03:06:45.150Z,53.63
2023-05-20T03:09:19.237Z,53.40
2023-05-20T03:11:50.560Z,54.70
2023-05-20T03:14:25.100Z,54.33
2023-05-20T03:17:00.701Z,56.70
2023-05-20T03:19:39.680Z,55.22
2023-05-20T03:22:09.306Z,57.60
2023-05-20T03:24:52.960Z,54.55
2023-05-20T03:27:27.655Z,55.60
2023-05-20T03:30:23.127Z,59.42
2023-05-20T03:33:03.294Z,55.25
2023-05-20T03:35:35.132Z,53.90
2023-05-20T03:38:15.826Z,57.35
2023-05-20T03:40:53.251Z,55.75
2023-05-20T03:43:26.473Z,55.58
2023-05-20T03:46:14.820Z,60.22
2023-05-20T03:48:47.184Z,55.72
2023-05-20T03:51:22.068Z,54.97
2023-05-20T03:54:00.382Z,57.00
2023-05-20T03:56:31.420Z,55.42
2023-05-20T03:59:02.377Z,60.25
2023-05-20T04:01:45.023Z,55.13
2023-05-20T04:04:16.781Z,57.95
2023-05-20T04:06:56.475Z,56.38
2023-05-20T04:09:25.566Z,55.83
2023-05-20T04:11:57.206Z,60.05
2023-05-20T04:14:29.084Z,57.13
2023-05-20T04:17:21.815Z,90.30
2023-05-20T04:19:53.864Z,58.22
2023-05-20T04:22:32.875Z,57.17
2023-05-20T04:25:11.496Z,62.70
2023-05-20T04:27:52.517Z,58.70
2023-05-20T04:30:23.714Z,59.05
2023-05-20T04:33:10.798Z,60.20
2023-05-20T04:35:46.857Z,59.20
2023-05-20T04:38:20.220Z,58.00
2023-05-20T04:40:52.008Z,57.67
2023-05-20T04:43:22.594Z,57.90
2023-05-20T04:45:58.116Z,57.97
2023-05-20T04:48:33.083Z,59.35
2023-05-20T04:51:11.165Z,61.13
2023-05-20T04:53:42.729Z,56.63
2023-05-20T04:56:13.960Z,58.67
2023-05-20T04:58:45.059Z,58.15
2023-05-20T05:01:16.208Z,57.45
2023-05-20T05:03:52.873Z,58.65
2023-05-20T05:06:31.944Z,58.97
2023-05-20T05:09:03.531Z,63.00
2023-05-20T05:11:40.100Z,60.67
2023-05-20T05:14:25.489Z,61.10
2023-05-20T05:16:55.749Z,62.40
2023-05-20T05:19:34.532Z,58.85
2023-05-20T05:22:12.075Z,63.63
2023-05-20T05:24:47.118Z,237.55
2023-05-20T05:27:26.036Z,60.72
2023-05-20T05:29:58.469Z,63.63
2023-05-20T05:32:36.508Z,144.10
2023-05-20T05:35:17.271Z,64.47
2023-05-20T05:37:48.221Z,61.42
2023-05-20T05:40:41.650Z,62.45
2023-05-20T05:43:16.068Z,61.90
2023-05-20T05:45:53.078Z,61.78
2023-05-20T05:48:27.050Z,59.30
2023-05-20T05:51:15.339Z,67.10
2023-05-20T05:53:56.117Z,60.85
2023-05-20T05:56:30.457Z,60.30
2023-05-20T05:59:11.897Z,63.38
2023-05-20T06:01:45.741Z,59.70
2023-05-20T06:04:31.133Z,60.13
2023-05-20T06:07:17.312Z,64.20
2023-05-20T06:10:04.274Z,60.38
2023-05-20T06:12:35.774Z,61.33
2023-05-20T06:15:13.232Z,65.90
2023-05-20T06:17:47.089Z,61.97
2023-05-20T06:20:38.596Z,61.65
2023-05-20T06:23:22.409Z,64.63
2023-05-20T06:26:09.832Z,61.95
2023-05-20T06:28:43.745Z,61.22
2023-05-20T06:31:14.653Z,60.40
2023-05-20T06:33:55.130Z,327.10
2023-05-20T06:36:33.585Z,60.28
2023-05-20T06:39:09.362Z,67.05
2023-05-20T06:41:40.957Z,61.00
2023-05-20T06:44:12.174Z,61.63
2023-05-20T06:46:47.912Z,58.72
2023-05-20T06:49:26.228Z,60.35
2023-05-20T06:51:57.826Z,62.75
2023-05-20T06:54:33.037Z,60.15
2023-05-20T06:57:04.168Z,63.92
2023-05-20T06:59:35.335Z,61.00
2023-05-20T07:02:06.110Z,73.53
2023-05-20T07:04:38.931Z,60.40
2023-05-20T07:07:09.183Z,62.20
2023-05-20T07:09:43.752Z,60.13
2023-05-20T07:12:14.826Z,57.88
2023-05-20T07:14:48.298Z,58.85
2023-05-20T07:17:17.456Z,60.38
2023-05-20T07:19:49.081Z,59.45
2023-05-20T07:22:26.114Z,124.43
2023-05-20T07:25:00.409Z,63.97
2023-05-20T07:27:32.754Z,57.58
2023-05-20T07:30:14.307Z,63.35
2023-05-20T07:32:56.533Z,59.65
2023-05-20T07:35:30.190Z,61.33
2023-05-20T07:38:07.037Z,69.45
2023-05-20T07:40:40.924Z,58.92
2023-05-20T07:43:13.566Z,398.33
2023-05-20T07:45:50.637Z,60.42
2023-05-20T07:48:21.398Z,59.80
2023-05-20T07:51:00.573Z,61.80
2023-05-20T07:53:41.130Z,60.42
2023-05-20T07:56:25.467Z,289.38
2023-05-20T07:59:10.432Z,63.08
2023-05-20T08:01:48.265Z,60.78
2023-05-20T08:04:19.929Z,59.17
2023-05-20T08:06:53.637Z,59.00
2023-05-20T08:09:26.593Z,63.15
2023-05-20T08:14:36.985Z,1999.90
2023-05-20T08:17:08.016Z,1999.90
2023-05-20T08:19:39.075Z,1999.90
2023-05-20T08:22:13.364Z,1999.90
2023-05-20T08:24:45.228Z,1999.90
2023-05-20T08:27:33.916Z,1999.90
2023-05-20T08:30:03.925Z,1999.90
2023-05-20T08:32:38.107Z,1999.90
2023-05-20T08:35:14.956Z,1999.90
2023-05-20T08:37:58.849Z,1999.90
2023-05-20T08:40:33.365Z,1999.90
2023-05-20T08:43:12.194Z,1999.90
2023-05-20T08:45:44.449Z,1999.90
2023-05-20T08:48:19.478Z,1999.90
2023-05-20T08:50:56.796Z,1999.90
2023-05-20T08:53:30.261Z,1999.90
2023-05-20T08:56:03.950Z,1999.90
2023-05-20T08:58:45.988Z,1999.90
2023-05-20T09:01:19.740Z,1999.90
2023-05-20T09:03:52.616Z,1999.90
2023-05-20T09:06:22.180Z,1999.90
2023-05-20T09:08:54.555Z,1999.90
2023-05-20T09:11:30.188Z,1999.90
2023-05-20T09:14:22.350Z,1999.90
2023-05-20T09:17:03.391Z,1999.90
2023-05-20T09:19:36.099Z,1999.90
2023-05-20T09:22:14.246Z,1999.90
2023-05-20T09:24:55.208Z,1999.90
2023-05-20T09:27:28.667Z,1999.90
2023-05-20T09:30:10.023Z,1999.90
2023-05-20T09:32:42.897Z,1999.90
2023-05-20T09:35:18.228Z,1999.90
2023-05-20T09:37:57.610Z,1999.90
2023-05-20T09:40:32.003Z,1999.90
2023-05-20T09:43:12.983Z,1999.90
2023-05-20T09:45:53.095Z,1999.90
2023-05-20T09:48:30.956Z,1999.90
2023-05-20T09:51:10.567Z,1999.90
2023-05-20T09:53:40.333Z,1999.90
2023-05-20T09:56:21.705Z,1999.90
2023-05-20T09:58:59.700Z,1999.90
2023-05-20T10:01:55.459Z,1999.90
2023-05-20T10:04:28.277Z,1999.90
2023-05-20T10:07:40.590Z,1999.90
2023-05-20T10:10:30.590Z,1999.90
2023-05-20T10:13:17.350Z,1999.90
2023-05-20T10:15:59.541Z,1999.90
2023-05-20T10:18:57.289Z,1999.90
2023-05-20T10:21:38.673Z,1999.90
2023-05-20T10:24:26.960Z,1999.90
2023-05-20T10:27:07.602Z,1999.90
2023-05-20T10:29:55.341Z,1999.90
2023-05-20T10:32:32.139Z,1999.90
2023-05-20T10:35:11.930Z,1999.90
2023-05-20T10:37:46.638Z,1999.90
2023-05-20T10:40:34.166Z,1999.90
2023-05-20T10:43:26.048Z,1999.90
2023-05-20T10:46:17.102Z,1999.90
2023-05-20T10:49:00.566Z,1999.90
2023-05-20T10:51:42.729Z,1999.90
2023-05-20T10:54:15.085Z,1999.90
2023-05-20T10:56:54.699Z,1999.90
2023-05-20T10:59:25.038Z,1999.90
2023-05-20T11:02:02.590Z,1999.90
2023-05-20T11:04:35.127Z,1999.90
2023-05-20T11:07:09.413Z,1999.90
2023-05-20T11:09:44.099Z,1999.90
2023-05-20T11:12:36.587Z,1999.90
2023-05-20T11:15:12.514Z,45.63
2023-05-20T11:20:48.371Z,1999.90
2023-05-20T11:23:27.927Z,1999.90
2023-05-20T11:25:59.030Z,43.70
2023-05-20T11:28:36.020Z,38.45
2023-05-20T11:31:06.926Z,61.75
2023-05-20T11:33:42.100Z,63.47
2023-05-20T11:36:26.973Z,61.95
2023-05-20T11:39:04.333Z,64.35
2023-05-20T11:41:35.183Z,73.55
2023-05-20T11:44:06.020Z,54.92
2023-05-20T11:47:00.081Z,1999.90
2023-05-20T11:49:33.010Z,46.45
2023-05-20T11:52:06.069Z,54.42
2023-05-20T11:54:47.378Z,45.60
2023-05-20T11:57:20.777Z,50.85
2023-05-20T12:00:02.861Z,42.65
2023-05-20T12:02:37.490Z,39.13
2023-05-20T12:05:15.225Z,39.13
2023-05-20T12:07:46.357Z,44.50
2023-05-20T12:10:26.173Z,44.88
2023-05-20T12:12:57.757Z,42.75
2023-05-20T12:15:41.076Z,1999.90
2023-05-20T12:20:50.331Z,296.30
2023-05-20T12:23:21.895Z,54.63
2023-05-20T12:25:56.860Z,41.33
2023-05-20T12:28:27.439Z,41.72
2023-05-20T12:31:04.537Z,45.22
2023-05-20T12:33:34.631Z,37.88
2023-05-20T12:36:11.321Z,46.53
2023-05-20T12:38:43.238Z,48.60
2023-05-20T12:41:24.985Z,37.92
2023-05-20T12:43:56.957Z,45.15
2023-05-20T12:46:37.816Z,37.97
2023-05-20T12:49:09.106Z,125.90
2023-05-20T12:51:44.435Z,39.17
2023-05-20T12:54:28.283Z,40.50
2023-05-20T12:57:07.933Z,47.63
2023-05-20T12:59:46.152Z,43.65
2023-05-20T13:02:16.151Z,45.22
2023-05-20T13:04:48.527Z,55.45
2023-05-20T13:07:24.898Z,1513.82
2023-05-20T13:09:59.413Z,50.40
2023-05-20T13:12:33.290Z,49.25
2023-05-20T13:15:12.270Z,54.83
2023-05-20T13:17:46.957Z,51.08
2023-05-20T13:20:28.087Z,51.20
2023-05-20T13:23:07.126Z,305.40
2023-05-20T13:25:38.488Z,49.65
2023-05-20T13:28:19.048Z,52.33
2023-05-20T13:30:57.005Z,55.35
2023-05-20T13:33:34.525Z,61.75
2023-05-20T13:36:18.692Z,70.80
2023-05-20T13:39:02.808Z,131.45
2023-05-20T13:41:34.672Z,62.57
2023-05-20T13:44:16.299Z,78.20
2023-05-20T13:46:49.856Z,911.90
2023-05-20T13:49:22.769Z,70.22
2023-05-20T13:51:56.308Z,76.00
2023-05-20T13:54:27.967Z,72.72
2023-05-20T13:56:57.524Z,98.07
2023-05-20T13:59:37.523Z,71.45
2023-05-20T14:02:17.365Z,82.15
2023-05-20T14:04:56.959Z,68.55
2023-05-20T14:07:35.088Z,71.63
2023-05-20T14:10:09.405Z,70.82
2023-05-20T14:12:43.431Z,59.65
2023-05-20T14:15:26.286Z,47.45
2023-05-20T14:17:57.910Z,51.40
2023-05-20T14:20:31.396Z,45.55
2023-05-20T14:23:04.582Z,51.45
2023-05-20T14:25:39.672Z,44.38
2023-05-20T14:28:16.489Z,54.35
2023-05-20T14:30:55.616Z,881.90
2023-05-20T14:33:33.556Z,45.47
2023-05-20T14:36:06.766Z,49.15
2023-05-20T14:38:50.651Z,1083.78
2023-05-20T14:41:29.404Z,42.47
2023-05-20T14:46:45.254Z,668.30
2023-05-20T14:49:17.575Z,40.42
2023-05-20T14:51:58.674Z,40.85
2023-05-20T14:54:39.628Z,38.65
2023-05-20T14:57:24.212Z,44.65
2023-05-20T15:00:06.935Z,44.40
2023-05-20T15:02:44.362Z,32.08
2023-05-20T15:05:21.905Z,33.72
2023-05-20T15:07:56.404Z,70.20
2023-05-20T15:10:31.534Z,32.40
2023-05-20T15:13:06.387Z,38.95
2023-05-20T15:15:38.187Z,34.80
2023-05-20T15:18:14.598Z,37.80
2023-05-20T15:20:49.071Z,112.93
2023-05-20T15:23:25.387Z,34.17
2023-05-20T15:25:58.631Z,36.13
2023-05-20T15:28:38.213Z,32.53
2023-05-20T15:31:13.782Z,36.63
2023-05-20T15:34:00.397Z,31.00
2023-05-20T15:36:39.551Z,32.85
2023-05-20T15:39:11.421Z,257.02
2023-05-20T15:41:44.414Z,33.00
2023-05-20T15:47:00.881Z,32.85
2023-05-20T15:49:34.848Z,36.63
2023-05-20T15:54:59.994Z,32.78
2023-05-20T15:57:38.433Z,31.48
2023-05-20T16:00:17.702Z,42.03
2023-05-20T16:02:59.436Z,33.58
2023-05-20T16:05:36.270Z,35.10
2023-05-20T16:08:08.942Z,38.45
2023-05-20T16:10:47.313Z,32.28
2023-05-20T16:13:18.311Z,34.15
2023-05-20T16:15:51.484Z,34.45
2023-05-20T16:18:26.470Z,48.72
2023-05-20T16:21:04.676Z,39.03
2023-05-20T16:23:36.236Z,34.13
2023-05-20T16:26:12.012Z,40.93
2023-05-20T16:28:44.030Z,36.78
2023-05-20T16:31:23.458Z,60.00
2023-05-20T16:36:52.163Z,34.40
2023-05-20T16:39:25.070Z,56.30
2023-05-20T16:44:39.533Z,32.63
2023-05-20T16:47:18.777Z,40.40
2023-05-20T16:49:51.170Z,35.22
2023-05-20T16:52:25.059Z,58.55
2023-05-20T16:55:02.329Z,38.58
2023-05-20T16:57:35.087Z,33.45
2023-05-20T17:02:46.247Z,31.33
2023-05-20T17:05:21.310Z,31.45
2023-05-20T17:08:02.351Z,31.95
2023-05-20T17:13:18.009Z,34.08
2023-05-20T17:15:50.364Z,35.27
2023-05-20T17:18:25.012Z,31.67
2023-05-20T17:20:58.710Z,33.47
2023-05-20T17:23:34.671Z,31.27
2023-05-20T17:26:09.741Z,36.33
2023-05-20T17:28:43.089Z,417.00
2023-05-20T17:31:15.330Z,31.25
2023-05-20T17:33:47.990Z,30.58
2023-05-20T17:36:22.542Z,30.67
2023-05-20T17:39:12.670Z,32.97
2023-05-20T17:41:51.250Z,32.17
2023-05-20T17:44:22.758Z,32.00
2023-05-20T17:49:37.943Z,34.05
2023-05-20T17:52:10.048Z,34.00
2023-05-20T17:54:40.818Z,30.65
2023-05-20T17:57:12.226Z,31.60
2023-05-20T17:59:47.418Z,29.50
2023-05-20T18:02:19.652Z,29.05
2023-05-20T18:04:52.267Z,29.15
2023-05-20T18:07:22.032Z,33.90
2023-05-20T18:12:43.655Z,27.60
2023-05-20T18:15:17.514Z,26.90
2023-05-20T18:17:50.299Z,26.95
2023-05-20T18:23:08.651Z,31.73
2023-05-20T18:28:16.433Z,26.67
2023-05-20T18:31:02.150Z,25.92
2023-05-20T18:33:32.150Z,26.33
2023-05-20T18:36:08.616Z,31.30
2023-05-20T18:38:41.318Z,27.42
2023-05-20T18:43:54.449Z,26.27
2023-05-20T18:46:27.088Z,27.63
2023-05-20T18:49:00.692Z,32.78
2023-05-20T18:51:45.629Z,26.67
2023-05-20T18:54:31.672Z,26.73
2023-05-20T18:57:17.268Z,31.67
2023-05-20T18:59:53.951Z,28.63
2023-05-20T19:02:28.672Z,26.42
2023-05-20T19:04:59.629Z,31.63
2023-05-20T19:07:30.922Z,28.17
2023-05-20T19:10:00.910Z,32.00
2023-05-20T19:12:34.964Z,28.15
2023-05-20T19:15:07.375Z,55.22
2023-05-20T19:17:43.017Z,29.70
2023-05-20T19:20:21.778Z,31.10
2023-05-20T19:22:52.476Z,31.85
2023-05-20T19:25:25.051Z,31.00
2023-05-20T19:27:58.226Z,33.88
2023-05-20T19:33:07.478Z,32.78
2023-05-20T19:35:45.673Z,28.08
2023-05-20T19:38:20.725Z,28.13
2023-05-20T19:40:51.284Z,447.85
2023-05-20T19:43:33.146Z,25.83
2023-05-20T19:46:06.709Z,30.85
2023-05-20T19:48:39.350Z,26.05
2023-05-20T19:51:10.781Z,59.95
2023-05-20T19:56:35.075Z,25.25
2023-05-20T19:59:05.983Z,30.27
2023-05-20T20:01:49.061Z,25.25
2023-05-20T20:04:22.414Z,24.33
2023-05-20T20:06:53.908Z,24.67
2023-05-20T20:09:32.395Z,23.98
2023-05-20T20:12:03.810Z,28.85
2023-05-20T20:14:38.065Z,25.33
2023-05-20T20:17:22.982Z,27.67
2023-05-20T20:19:59.829Z,25.63
2023-05-20T20:22:38.058Z,23.63
2023-05-20T20:25:21.532Z,29.33
2023-05-20T20:30:45.487Z,39.33
2023-05-20T20:33:17.514Z,24.48
2023-05-20T20:35:51.787Z,24.40
2023-05-20T20:38:33.305Z,26.10
2023-05-20T20:41:08.178Z,29.95
2023-05-20T20:43:54.976Z,24.83
2023-05-20T20:46:29.523Z,25.00
2023-05-20T20:49:11.829Z,30.25
2023-05-20T20:51:49.258Z,25.98
2023-05-20T20:54:36.148Z,26.60
2023-05-20T20:57:13.061Z,31.27
2023-05-20T20:59:53.701Z,25.65
2023-05-20T21:02:30.422Z,25.77
2023-05-20T21:05:04.912Z,29.85
2023-05-20T21:07:36.670Z,27.08
2023-05-20T21:10:13.632Z,30.15
2023-05-20T21:12:47.916Z,25.48
2023-05-20T21:15:21.614Z,25.77
2023-05-20T21:18:03.471Z,25.77
2023-05-20T21:20:37.327Z,25.38
2023-05-20T21:23:17.639Z,29.17
2023-05-20T21:25:53.145Z,24.88
2023-05-20T21:28:30.740Z,28.40
2023-05-20T21:31:18.125Z,29.83
2023-05-20T21:34:02.088Z,25.38
2023-05-20T21:36:37.073Z,25.70
2023-05-20T21:39:06.892Z,29.35
2023-05-20T21:41:40.492Z,26.88
2023-05-20T21:44:21.008Z,27.55
2023-05-20T21:47:05.694Z,25.88
2023-05-20T21:49:40.172Z,26.67
2023-05-20T21:52:11.387Z,29.52
2023-05-20T21:54:50.693Z,25.25
2023-05-20T21:57:30.736Z,26.30
2023-05-20T22:00:02.080Z,30.88
2023-05-20T22:02:34.054Z,26.13
2023-05-20T22:05:12.832Z,31.13
2023-05-20T22:07:47.068Z,26.63
2023-05-20T22:10:35.047Z,26.58
2023-05-20T22:13:08.429Z,31.33
2023-05-20T22:15:42.858Z,26.73
2023-05-20T22:18:23.825Z,26.05
2023-05-20T22:21:00.537Z,27.30
2023-05-20T22:23:46.050Z,26.75
2023-05-20T22:26:19.069Z,26.92
2023-05-20T22:28:57.028Z,27.88
2023-05-20T22:31:29.962Z,26.52
2023-05-20T22:34:08.129Z,32.03
2023-05-20T22:36:53.883Z,27.77
2023-05-20T22:39:27.017Z,27.85
2023-05-20T22:42:04.879Z,32.55
2023-05-20T22:44:51.795Z,27.42
2023-05-20T22:47:35.422Z,203.90
2023-05-20T22:50:13.915Z,31.85
2023-05-20T22:52:46.964Z,28.33
2023-05-20T22:57:51.747Z,27.95
2023-05-20T23:00:24.741Z,28.55
2023-05-20T23:02:56.850Z,28.95
2023-05-20T23:05:43.732Z,27.77
2023-05-20T23:08:23.910Z,29.52
2023-05-20T23:10:58.768Z,30.13
2023-05-20T23:13:34.475Z,28.20
2023-05-20T23:16:18.538Z,33.60
2023-05-20T23:18:54.350Z,27.85
2023-05-20T23:21:26.389Z,27.83
2023-05-20T23:24:04.116Z,32.13
2023-05-20T23:26:34.769Z,27.60
2023-05-20T23:29:04.814Z,31.60
2023-05-20T23:31:36.889Z,27.92
2023-05-20T23:34:07.663Z,32.10
2023-05-20T23:36:42.210Z,28.10
2023-05-20T23:39:21.876Z,27.08
2023-05-20T23:42:06.070Z,30.70
2023-05-20T23:47:21.336Z,28.08
2023-05-20T23:49:59.546Z,28.75
2023-05-20T23:52:38.137Z,28.45
2023-05-20T23:55:14.368Z,32.22
2023-05-20T23:57:46.855Z,28.65
